Terminal Aerodrome Forecast
Issued by NWS Sterling, VA

Current Version | Previous Version | Text Only | Print | Product List | Glossary On
Versions: 1 2 3 4 5 6 7 8 9 10 11 12 13 14 15 16 17 18 19 20 21 22
543
FTUS41 KLWX 250520
TAFBWI
TAF
KBWI 250520Z 2506/2612 01004KT 6SM BR FEW050
     FM251200 05004KT P6SM FEW050
     FM260100 00000KT P6SM SKC=

USA.gov is the U.S. government's official web portal to all federal, state and local government web resources and services.